THY3GK LTFM-LIRF
Flight info
| Callsign | THY3GK |
|---|---|
| Flight time | N/A |
| Altitude | 40000 |
| Route | VADEN DCT BAKLO DCT ROVAM DCT DOLAP DCT GINAM DCT BUNEX/N0475F390 DCT ESODU/N0471F330 DCT ASPIR DCT MOPUV |
| Aircraft | A359/H-SDE2E3GHIJ3J4J5LM1ORWXY/LB1D1 |
Departure
| Time | N/A |
|---|---|
| Airport | İstanbul Airport (LTFM) |
Arrival
| Time | 2026-05-03 21:30 |
|---|---|
| Airport | Rome–Fiumicino Leonardo da Vinci International Airport (LIRF) |
| Time | Latitude | Longitude | Altitude | Speed | Heading |
|---|---|---|---|---|---|
| 2026-05-03 21:04 | 42.14172 | 13.57012 | 20691 ft | 381 kts | 251° |
| 2026-05-03 21:04 | 42.13225 | 13.53674 | 20226 ft | 382 kts | 251° |
| 2026-05-03 21:04 | 42.12277 | 13.50332 | 19715 ft | 381 kts | 251° |
| 2026-05-03 21:05 | 42.11332 | 13.47004 | 19233 ft | 379 kts | 251° |
| 2026-05-03 21:05 | 42.10392 | 13.43697 | 18874 ft | 373 kts | 250° |
| 2026-05-03 21:05 | 42.09477 | 13.40489 | 18744 ft | 361 kts | 250° |
| 2026-05-03 21:05 | 42.08593 | 13.37388 | 18616 ft | 348 kts | 250° |
| 2026-05-03 21:06 | 42.07748 | 13.34429 | 18492 ft | 328 kts | 251° |
| 2026-05-03 21:06 | 42.06956 | 13.31661 | 18243 ft | 314 kts | 250° |
| 2026-05-03 21:06 | 42.06158 | 13.28929 | 17828 ft | 314 kts | 248° |
| 2026-05-03 21:06 | 42.05151 | 13.26329 | 17464 ft | 313 kts | 242° |
| 2026-05-03 21:07 | 42.04047 | 13.23823 | 17224 ft | 307 kts | 241° |
| 2026-05-03 21:07 | 42.02967 | 13.21409 | 17084 ft | 295 kts | 240° |
| 2026-05-03 21:07 | 42.01920 | 13.19068 | 16876 ft | 290 kts | 240° |
| 2026-05-03 21:07 | 42.00885 | 13.16747 | 16547 ft | 290 kts | 240° |
| 2026-05-03 21:08 | 41.99853 | 13.14422 | 16218 ft | 290 kts | 241° |
| 2026-05-03 21:08 | 41.98934 | 13.12018 | 15991 ft | 289 kts | 246° |
| 2026-05-03 21:08 | 41.98074 | 13.09542 | 15870 ft | 294 kts | 246° |
| 2026-05-03 21:08 | 41.97219 | 13.07049 | 15705 ft | 294 kts | 246° |
| 2026-05-03 21:09 | 41.96373 | 13.04590 | 15549 ft | 293 kts | 246° |
| 2026-05-03 21:09 | 41.95518 | 13.02107 | 15391 ft | 293 kts | 246° |
| 2026-05-03 21:09 | 41.94662 | 12.99627 | 15222 ft | 292 kts | 245° |
| 2026-05-03 21:09 | 41.93807 | 12.97155 | 15063 ft | 292 kts | 246° |
| 2026-05-03 21:10 | 41.92953 | 12.94683 | 14900 ft | 291 kts | 246° |
| 2026-05-03 21:10 | 41.92101 | 12.92222 | 14735 ft | 291 kts | 246° |
| 2026-05-03 21:10 | 41.91250 | 12.89766 | 14583 ft | 290 kts | 245° |
| 2026-05-03 21:10 | 41.90399 | 12.87314 | 14422 ft | 289 kts | 246° |
| 2026-05-03 21:11 | 41.89550 | 12.84867 | 14280 ft | 289 kts | 246° |
| 2026-05-03 21:11 | 41.88760 | 12.82374 | 14204 ft | 298 kts | 253° |
| 2026-05-03 21:11 | 41.88430 | 12.79511 | 14216 ft | 320 kts | 273° |
| 2026-05-03 21:11 | 41.88999 | 12.76655 | 14199 ft | 319 kts | 300° |
| 2026-05-03 21:12 | 41.90233 | 12.74191 | 14002 ft | 318 kts | 307° |
| 2026-05-03 21:12 | 41.91520 | 12.71776 | 13718 ft | 318 kts | 297° |
| 2026-05-03 21:12 | 41.92328 | 12.69011 | 13480 ft | 318 kts | 290° |
| 2026-05-03 21:12 | 41.93096 | 12.66229 | 13239 ft | 317 kts | 291° |
| 2026-05-03 21:13 | 41.93965 | 12.63514 | 13054 ft | 317 kts | 298° |
| 2026-05-03 21:13 | 41.95163 | 12.61078 | 12980 ft | 316 kts | 309° |
| 2026-05-03 21:13 | 41.96578 | 12.58837 | 12575 ft | 315 kts | 312° |
| 2026-05-03 21:13 | 41.98053 | 12.56653 | 12104 ft | 313 kts | 313° |
| 2026-05-03 21:14 | 41.99524 | 12.54516 | 11836 ft | 310 kts | 313° |
| 2026-05-03 21:14 | 42.00993 | 12.52396 | 11706 ft | 309 kts | 313° |
| 2026-05-03 21:14 | 42.02462 | 12.50281 | 11584 ft | 306 kts | 313° |
| 2026-05-03 21:14 | 42.03885 | 12.48235 | 11472 ft | 293 kts | 313° |
| 2026-05-03 21:15 | 42.05254 | 12.46267 | 11320 ft | 282 kts | 313° |
| 2026-05-03 21:15 | 42.06556 | 12.44394 | 11209 ft | 272 kts | 313° |
| 2026-05-03 21:15 | 42.07847 | 12.42538 | 11079 ft | 272 kts | 313° |
| 2026-05-03 21:15 | 42.09140 | 12.40677 | 10806 ft | 270 kts | 314° |
| 2026-05-03 21:16 | 42.10403 | 12.38860 | 10524 ft | 261 kts | 313° |
| 2026-05-03 21:16 | 42.11762 | 12.37268 | 10245 ft | 259 kts | 329° |
| 2026-05-03 21:16 | 42.13412 | 12.36309 | 9957 ft | 257 kts | 341° |
| 2026-05-03 21:16 | 42.15115 | 12.35589 | 9676 ft | 256 kts | 343° |
| 2026-05-03 21:17 | 42.16822 | 12.34893 | 9403 ft | 256 kts | 343° |
| 2026-05-03 21:17 | 42.17946 | 12.34432 | 9219 ft | 255 kts | 343° |
| 2026-05-03 21:17 | 42.20216 | 12.33496 | 9024 ft | 255 kts | 343° |
| 2026-05-03 21:17 | 42.21889 | 12.32796 | 8938 ft | 255 kts | 343° |
| 2026-05-03 21:18 | 42.23580 | 12.32084 | 8841 ft | 254 kts | 343° |
| 2026-05-03 21:18 | 42.25269 | 12.31371 | 8748 ft | 254 kts | 343° |
| 2026-05-03 21:18 | 42.26954 | 12.30661 | 8631 ft | 254 kts | 343° |
| 2026-05-03 21:18 | 42.28646 | 12.29951 | 8378 ft | 253 kts | 343° |
| 2026-05-03 21:19 | 42.30332 | 12.29240 | 8075 ft | 253 kts | 343° |
| 2026-05-03 21:19 | 42.31894 | 12.28234 | 7767 ft | 253 kts | 321° |
| 2026-05-03 21:19 | 42.32980 | 12.26403 | 7484 ft | 251 kts | 300° |
| 2026-05-03 21:19 | 42.33687 | 12.24249 | 7196 ft | 252 kts | 285° |
| 2026-05-03 21:20 | 42.33798 | 12.21913 | 6902 ft | 249 kts | 258° |
| 2026-05-03 21:20 | 42.33046 | 12.19871 | 6698 ft | 244 kts | 222° |
| 2026-05-03 21:20 | 42.31613 | 12.18710 | 6681 ft | 242 kts | 199° |
| 2026-05-03 21:20 | 42.30021 | 12.17945 | 6680 ft | 243 kts | 195° |
| 2026-05-03 21:21 | 42.28381 | 12.17382 | 6679 ft | 243 kts | 189° |
| 2026-05-03 21:21 | 42.26731 | 12.16874 | 6648 ft | 244 kts | 195° |
| 2026-05-03 21:21 | 42.25108 | 12.16190 | 6549 ft | 243 kts | 195° |
| 2026-05-03 21:21 | 42.23449 | 12.15787 | 6438 ft | 242 kts | 180° |
| 2026-05-03 21:22 | 42.21816 | 12.16137 | 6341 ft | 240 kts | 162° |
| 2026-05-03 21:22 | 42.20233 | 12.16846 | 6236 ft | 239 kts | 160° |
| 2026-05-03 21:22 | 42.18659 | 12.17576 | 6065 ft | 239 kts | 160° |
| 2026-05-03 21:22 | 42.17083 | 12.18284 | 5815 ft | 238 kts | 161° |
| 2026-05-03 21:23 | 42.15493 | 12.18915 | 5455 ft | 238 kts | 168° |
| 2026-05-03 21:23 | 42.13851 | 12.18895 | 5156 ft | 236 kts | 188° |
| 2026-05-03 21:23 | 42.12229 | 12.18452 | 4923 ft | 237 kts | 192° |
| 2026-05-03 21:23 | 42.10651 | 12.17961 | 4570 ft | 228 kts | 192° |
| 2026-05-03 21:24 | 42.09129 | 12.17488 | 4222 ft | 221 kts | 193° |
| 2026-05-03 21:24 | 42.07648 | 12.17056 | 3873 ft | 215 kts | 190° |
| 2026-05-03 21:24 | 42.06180 | 12.17100 | 3539 ft | 211 kts | 169° |
| 2026-05-03 21:24 | 42.04762 | 12.17637 | 3222 ft | 210 kts | 164° |
| 2026-05-03 21:25 | 42.03420 | 12.18241 | 3119 ft | 196 kts | 165° |
| 2026-05-03 21:25 | 42.02167 | 12.18787 | 2972 ft | 182 kts | 165° |
| 2026-05-03 21:25 | 42.01022 | 12.19278 | 2964 ft | 165 kts | 167° |
| 2026-05-03 21:25 | 41.99967 | 12.19726 | 2966 ft | 155 kts | 167° |
| 2026-05-03 21:26 | 41.98938 | 12.20158 | 2953 ft | 155 kts | 167° |
| 2026-05-03 21:26 | 41.97910 | 12.20582 | 2796 ft | 154 kts | 167° |
| 2026-05-03 21:26 | 41.96899 | 12.21003 | 2573 ft | 153 kts | 168° |
| 2026-05-03 21:26 | 41.95880 | 12.21425 | 2378 ft | 154 kts | 169° |
| 2026-05-03 21:27 | 41.94854 | 12.21855 | 2163 ft | 155 kts | 168° |
| 2026-05-03 21:27 | 41.93824 | 12.22289 | 1967 ft | 155 kts | 165° |
| 2026-05-03 21:27 | 41.92808 | 12.22717 | 1740 ft | 150 kts | 166° |
| 2026-05-03 21:27 | 41.91814 | 12.23133 | 1545 ft | 148 kts | 166° |
| 2026-05-03 21:28 | 41.90836 | 12.23543 | 1361 ft | 146 kts | 166° |
| 2026-05-03 21:28 | 41.89877 | 12.23944 | 1167 ft | 146 kts | 166° |
| 2026-05-03 21:28 | 41.88908 | 12.24352 | 968 ft | 145 kts | 167° |
| 2026-05-03 21:28 | 41.87947 | 12.24759 | 755 ft | 144 kts | 166° |
| 2026-05-03 21:29 | 41.87003 | 12.25143 | 577 ft | 141 kts | 168° |
| 2026-05-03 21:29 | 41.86050 | 12.25520 | 383 ft | 144 kts | 165° |
| 2026-05-03 21:29 | 41.85105 | 12.25932 | 196 ft | 143 kts | 165° |
| 2026-05-03 21:29 | 41.84158 | 12.26332 | 29 ft | 142 kts | 165° |
| 2026-05-03 21:30 | 41.83327 | 12.26674 | 19 ft | 104 kts | 162° |
| 2026-05-03 21:30 | 41.82779 | 12.26916 | 23 ft | 62 kts | 161° |
| 2026-05-03 21:30 | 41.82462 | 12.27050 | 18 ft | 43 kts | 162° |
| 2026-05-03 21:30 | 41.82178 | 12.27142 | 20 ft | 40 kts | 171° |
| 2026-05-03 21:31 | 41.81926 | 12.27106 | 19 ft | 35 kts | 191° |
| 2026-05-03 21:31 | 41.81691 | 12.27051 | 21 ft | 34 kts | 174° |
| 2026-05-03 21:31 | 41.81461 | 12.27139 | 21 ft | 35 kts | 163° |
| 2026-05-03 21:31 | 41.81229 | 12.27234 | 20 ft | 35 kts | 162° |
| 2026-05-03 21:32 | 41.81013 | 12.27327 | 22 ft | 25 kts | 163° |
| 2026-05-03 21:32 | 41.80839 | 12.27335 | 21 ft | 26 kts | 190° |
| 2026-05-03 21:32 | 41.80680 | 12.27261 | 21 ft | 22 kts | 236° |
| 2026-05-03 21:32 | 41.80618 | 12.27086 | 23 ft | 21 kts | 250° |
| 2026-05-03 21:33 | 41.80569 | 12.26902 | 22 ft | 22 kts | 250° |
| 2026-05-03 21:33 | 41.80515 | 12.26708 | 24 ft | 22 kts | 248° |
| 2026-05-03 21:33 | 41.80457 | 12.26509 | 23 ft | 24 kts | 249° |
| 2026-05-03 21:33 | 41.80399 | 12.26297 | 24 ft | 25 kts | 250° |
| 2026-05-03 21:34 | 41.80337 | 12.26069 | 23 ft | 27 kts | 250° |
| 2026-05-03 21:34 | 41.80271 | 12.25829 | 23 ft | 28 kts | 250° |
| 2026-05-03 21:34 | 41.80202 | 12.25579 | 23 ft | 29 kts | 250° |
| 2026-05-03 21:34 | 41.80139 | 12.25347 | 23 ft | 24 kts | 250° |
| 2026-05-03 21:35 | 41.80096 | 12.25124 | 20 ft | 25 kts | 272° |
| 2026-05-03 21:35 | 41.80107 | 12.24890 | 23 ft | 25 kts | 261° |
| 2026-05-03 21:35 | 41.80055 | 12.24662 | 23 ft | 26 kts | 249° |
| 2026-05-03 21:35 | 41.79996 | 12.24453 | 23 ft | 18 kts | 249° |
| 2026-05-03 21:36 | 41.79962 | 12.24378 | 23 ft | 2 kts | 184° |
| 2026-05-03 21:36 | 41.79942 | 12.24382 | 20 ft | 7 kts | 171° |
| 2026-05-03 21:36 | 41.79873 | 12.24410 | 21 ft | 12 kts | 160° |
| 2026-05-03 21:36 | 41.79789 | 12.24451 | 23 ft | 14 kts | 160° |
| 2026-05-03 21:37 | 41.79708 | 12.24491 | 24 ft | 7 kts | 160° |
| 2026-05-03 21:37 | 41.79678 | 12.24529 | 23 ft | 3 kts | 96° |
| 2026-05-03 21:37 | 41.79687 | 12.24562 | 22 ft | 5 kts | 71° |
| 2026-05-03 21:37 | 41.79693 | 12.24582 | 22 ft | 0 kts | 70° |
| 2026-05-03 21:38 | 41.79697 | 12.24600 | 24 ft | 3 kts | 70° |
| 2026-05-03 21:38 | 41.79698 | 12.24603 | 24 ft | 0 kts | 70° |
| 2026-05-03 21:38 | 41.79700 | 12.24609 | 23 ft | 0 kts | 70° |